sensor_id;sensor_type;location;lat;lon;timestamp;temperature;humidity
29431;DHT22;16404;49.902;10.074;2022-11-02T00:01:43;11.10;64.70
29431;DHT22;16404;49.902;10.074;2022-11-02T00:04:28;11.10;64.70
29431;DHT22;16404;49.902;10.074;2022-11-02T00:07:12;11.10;64.50
29431;DHT22;16404;49.902;10.074;2022-11-02T00:09:57;11.10;64.40
29431;DHT22;16404;49.902;10.074;2022-11-02T00:12:41;11.00;64.20
29431;DHT22;16404;49.902;10.074;2022-11-02T00:15:28;11.00;64.10
29431;DHT22;16404;49.902;10.074;2022-11-02T00:18:14;11.00;64.10
29431;DHT22;16404;49.902;10.074;2022-11-02T00:20:58;11.00;64.00
29431;DHT22;16404;49.902;10.074;2022-11-02T00:23:45;11.00;63.90
29431;DHT22;16404;49.902;10.074;2022-11-02T00:26:32;11.00;63.70
29431;DHT22;16404;49.902;10.074;2022-11-02T00:29:17;10.90;64.30
29431;DHT22;16404;49.902;10.074;2022-11-02T00:32:02;10.90;63.60
29431;DHT22;16404;49.902;10.074;2022-11-02T00:34:46;10.80;63.60
29431;DHT22;16404;49.902;10.074;2022-11-02T00:37:31;10.80;63.70
29431;DHT22;16404;49.902;10.074;2022-11-02T00:40:15;10.80;63.50
29431;DHT22;16404;49.902;10.074;2022-11-02T00:43:00;10.70;63.40
29431;DHT22;16404;49.902;10.074;2022-11-02T00:45:45;10.70;63.40
29431;DHT22;16404;49.902;10.074;2022-11-02T00:48:29;10.80;63.70
29431;DHT22;16404;49.902;10.074;2022-11-02T00:51:15;10.70;63.90
29431;DHT22;16404;49.902;10.074;2022-11-02T00:54:00;10.60;64.00
29431;DHT22;16404;49.902;10.074;2022-11-02T00:56:45;10.60;64.20
29431;DHT22;16404;49.902;10.074;2022-11-02T00:59:30;10.60;64.20
29431;DHT22;16404;49.902;10.074;2022-11-02T01:02:15;10.60;64.70
29431;DHT22;16404;49.902;10.074;2022-11-02T01:04:59;10.60;65.60
29431;DHT22;16404;49.902;10.074;2022-11-02T01:07:44;10.60;66.50
29431;DHT22;16404;49.902;10.074;2022-11-02T01:10:29;10.60;67.30
29431;DHT22;16404;49.902;10.074;2022-11-02T01:13:13;10.60;67.50
29431;DHT22;16404;49.902;10.074;2022-11-02T01:15:58;10.60;67.40
29431;DHT22;16404;49.902;10.074;2022-11-02T01:18:42;10.70;67.60
29431;DHT22;16404;49.902;10.074;2022-11-02T01:21:27;10.70;67.60
29431;DHT22;16404;49.902;10.074;2022-11-02T01:24:12;10.70;67.70
29431;DHT22;16404;49.902;10.074;2022-11-02T01:26:57;10.70;67.90
29431;DHT22;16404;49.902;10.074;2022-11-02T01:29:41;10.70;67.80
29431;DHT22;16404;49.902;10.074;2022-11-02T01:32:28;10.80;67.70
29431;DHT22;16404;49.902;10.074;2022-11-02T01:35:13;10.80;67.80
29431;DHT22;16404;49.902;10.074;2022-11-02T01:37:58;10.80;67.60
29431;DHT22;16404;49.902;10.074;2022-11-02T01:40:43;10.80;67.70
29431;DHT22;16404;49.902;10.074;2022-11-02T01:43:30;10.90;67.60
29431;DHT22;16404;49.902;10.074;2022-11-02T01:46:19;10.90;67.30
29431;DHT22;16404;49.902;10.074;2022-11-02T01:49:08;10.80;67.60
29431;DHT22;16404;49.902;10.074;2022-11-02T01:52:21;10.90;67.90
29431;DHT22;16404;49.902;10.074;2022-11-02T01:55:27;10.80;68.40
29431;DHT22;16404;49.902;10.074;2022-11-02T01:58:13;10.90;68.00
29431;DHT22;16404;49.902;10.074;2022-11-02T02:00:57;10.90;67.80
29431;DHT22;16404;49.902;10.074;2022-11-02T02:03:42;10.90;67.80
29431;DHT22;16404;49.902;10.074;2022-11-02T02:06:27;10.90;67.50
29431;DHT22;16404;49.902;10.074;2022-11-02T02:09:12;10.90;67.30
29431;DHT22;16404;49.902;10.074;2022-11-02T02:11:57;10.90;67.50
29431;DHT22;16404;49.902;10.074;2022-11-02T02:14:42;11.00;67.50
29431;DHT22;16404;49.902;10.074;2022-11-02T02:17:57;11.00;67.40
29431;DHT22;16404;49.902;10.074;2022-11-02T02:20:56;10.90;68.00
29431;DHT22;16404;49.902;10.074;2022-11-02T02:27:04;10.90;68.00
29431;DHT22;16404;49.902;10.074;2022-11-02T02:30:03;11.00;68.50
29431;DHT22;16404;49.902;10.074;2022-11-02T02:35:51;11.00;68.40
29431;DHT22;16404;49.902;10.074;2022-11-02T02:39:04;11.00;68.50
29431;DHT22;16404;49.902;10.074;2022-11-02T02:42:00;11.10;68.60
29431;DHT22;16404;49.902;10.074;2022-11-02T02:47:54;11.10;68.50
29431;DHT22;16404;49.902;10.074;2022-11-02T02:51:03;11.20;68.40
29431;DHT22;16404;49.902;10.074;2022-11-02T02:53:56;11.20;68.00
29431;DHT22;16404;49.902;10.074;2022-11-02T02:56:49;11.20;67.90
29431;DHT22;16404;49.902;10.074;2022-11-02T02:59:40;11.20;67.70
29431;DHT22;16404;49.902;10.074;2022-11-02T03:02:29;11.20;67.60
29431;DHT22;16404;49.902;10.074;2022-11-02T03:05:26;11.20;67.60
29431;DHT22;16404;49.902;10.074;2022-11-02T03:08:14;11.20;67.40
29431;DHT22;16404;49.902;10.074;2022-11-02T03:22:40;11.40;68.00
29431;DHT22;16404;49.902;10.074;2022-11-02T03:28:55;11.30;68.10
29431;DHT22;16404;49.902;10.074;2022-11-02T03:32:35;11.40;68.20
29431;DHT22;16404;49.902;10.074;2022-11-02T03:35:18;11.40;68.50
29431;DHT22;16404;49.902;10.074;2022-11-02T03:38:19;11.40;68.40
29431;DHT22;16404;49.902;10.074;2022-11-02T03:41:11;11.40;68.70
29431;DHT22;16404;49.902;10.074;2022-11-02T03:44:06;11.50;68.80
29431;DHT22;16404;49.902;10.074;2022-11-02T03:46:57;11.50;69.30
29431;DHT22;16404;49.902;10.074;2022-11-02T03:49:43;11.50;69.30
29431;DHT22;16404;49.902;10.074;2022-11-02T03:52:31;11.50;69.50
29431;DHT22;16404;49.902;10.074;2022-11-02T03:55:21;11.60;69.50
29431;DHT22;16404;49.902;10.074;2022-11-02T03:58:10;11.60;69.30
29431;DHT22;16404;49.902;10.074;2022-11-02T04:00:59;11.60;69.30
29431;DHT22;16404;49.902;10.074;2022-11-02T04:03:46;11.70;69.40
29431;DHT22;16404;49.902;10.074;2022-11-02T04:06:31;11.70;69.40
29431;DHT22;16404;49.902;10.074;2022-11-02T04:09:17;11.70;69.50
29431;DHT22;16404;49.902;10.074;2022-11-02T04:12:02;11.70;69.30
29431;DHT22;16404;49.902;10.074;2022-11-02T04:15:06;11.80;69.30
29431;DHT22;16404;49.902;10.074;2022-11-02T04:17:51;11.80;69.30
29431;DHT22;16404;49.902;10.074;2022-11-02T04:20:55;11.80;69.40
29431;DHT22;16404;49.902;10.074;2022-11-02T04:23:39;11.80;69.30
29431;DHT22;16404;49.902;10.074;2022-11-02T04:26:42;11.80;69.30
29431;DHT22;16404;49.902;10.074;2022-11-02T04:29:27;11.70;69.40
29431;DHT22;16404;49.902;10.074;2022-11-02T04:32:12;11.80;69.50
29431;DHT22;16404;49.902;10.074;2022-11-02T04:34:56;11.80;69.50
29431;DHT22;16404;49.902;10.074;2022-11-02T04:37:42;11.80;69.50
29431;DHT22;16404;49.902;10.074;2022-11-02T04:40:48;11.80;69.30
29431;DHT22;16404;49.902;10.074;2022-11-02T04:43:53;11.80;69.10
29431;DHT22;16404;49.902;10.074;2022-11-02T04:46:39;11.70;69.00
29431;DHT22;16404;49.902;10.074;2022-11-02T04:49:25;11.70;69.20
29431;DHT22;16404;49.902;10.074;2022-11-02T04:52:11;11.70;69.30
29431;DHT22;16404;49.902;10.074;2022-11-02T04:55:01;11.70;69.40
29431;DHT22;16404;49.902;10.074;2022-11-02T04:57:46;11.80;69.50
29431;DHT22;16404;49.902;10.074;2022-11-02T05:00:30;11.70;69.30
29431;DHT22;16404;49.902;10.074;2022-11-02T05:03:15;11.70;69.30
29431;DHT22;16404;49.902;10.074;2022-11-02T05:06:01;11.80;69.30
29431;DHT22;16404;49.902;10.074;2022-11-02T05:08:47;11.80;69.00
29431;DHT22;16404;49.902;10.074;2022-11-02T05:11:32;11.80;69.00
29431;DHT22;16404;49.902;10.074;2022-11-02T05:14:17;11.70;69.10
29431;DHT22;16404;49.902;10.074;2022-11-02T05:17:02;11.70;69.20
29431;DHT22;16404;49.902;10.074;2022-11-02T05:19:47;11.70;69.10
29431;DHT22;16404;49.902;10.074;2022-11-02T05:22:31;11.70;68.80
29431;DHT22;16404;49.902;10.074;2022-11-02T05:25:16;11.70;68.50
29431;DHT22;16404;49.902;10.074;2022-11-02T05:28:00;11.70;68.50
29431;DHT22;16404;49.902;10.074;2022-11-02T05:30:45;11.80;68.60
29431;DHT22;16404;49.902;10.074;2022-11-02T05:33:30;11.80;68.60
29431;DHT22;16404;49.902;10.074;2022-11-02T05:36:17;11.70;68.50
29431;DHT22;16404;49.902;10.074;2022-11-02T05:39:05;11.70;68.50
29431;DHT22;16404;49.902;10.074;2022-11-02T05:41:49;11.70;68.50
29431;DHT22;16404;49.902;10.074;2022-11-02T05:44:34;11.80;68.60
29431;DHT22;16404;49.902;10.074;2022-11-02T05:47:18;11.80;68.70
29431;DHT22;16404;49.902;10.074;2022-11-02T05:50:03;11.80;68.90
29431;DHT22;16404;49.902;10.074;2022-11-02T05:52:48;11.80;69.30
29431;DHT22;16404;49.902;10.074;2022-11-02T05:55:32;11.90;69.20
29431;DHT22;16404;49.902;10.074;2022-11-02T05:58:18;12.00;69.00
29431;DHT22;16404;49.902;10.074;2022-11-02T06:01:04;12.00;69.00
29431;DHT22;16404;49.902;10.074;2022-11-02T06:03:49;12.00;69.20
29431;DHT22;16404;49.902;10.074;2022-11-02T06:06:34;12.00;69.20
29431;DHT22;16404;49.902;10.074;2022-11-02T06:09:18;12.00;69.40
29431;DHT22;16404;49.902;10.074;2022-11-02T06:12:03;12.10;69.60
29431;DHT22;16404;49.902;10.074;2022-11-02T06:14:48;12.10;69.60
29431;DHT22;16404;49.902;10.074;2022-11-02T06:17:37;12.20;69.50
29431;DHT22;16404;49.902;10.074;2022-11-02T06:20:21;12.10;69.60
29431;DHT22;16404;49.902;10.074;2022-11-02T06:23:06;12.20;69.70
29431;DHT22;16404;49.902;10.074;2022-11-02T06:25:52;12.30;69.90
29431;DHT22;16404;49.902;10.074;2022-11-02T06:28:36;12.30;69.80
29431;DHT22;16404;49.902;10.074;2022-11-02T06:31:21;12.40;69.60
29431;DHT22;16404;49.902;10.074;2022-11-02T06:34:05;12.50;69.50
29431;DHT22;16404;49.902;10.074;2022-11-02T06:36:50;12.50;69.70
29431;DHT22;16404;49.902;10.074;2022-11-02T06:39:35;12.50;69.70
29431;DHT22;16404;49.902;10.074;2022-11-02T06:42:20;12.60;70.10
29431;DHT22;16404;49.902;10.074;2022-11-02T06:45:05;12.60;70.50
29431;DHT22;16404;49.902;10.074;2022-11-02T06:47:49;12.60;70.90
29431;DHT22;16404;49.902;10.074;2022-11-02T06:50:34;12.70;71.20
29431;DHT22;16404;49.902;10.074;2022-11-02T06:53:19;12.70;71.60
29431;DHT22;16404;49.902;10.074;2022-11-02T06:56:04;12.80;71.80
29431;DHT22;16404;49.902;10.074;2022-11-02T06:58:48;12.80;71.90
29431;DHT22;16404;49.902;10.074;2022-11-02T07:01:33;12.90;72.00
29431;DHT22;16404;49.902;10.074;2022-11-02T07:04:18;12.90;72.10
29431;DHT22;16404;49.902;10.074;2022-11-02T07:07:02;13.00;73.20
29431;DHT22;16404;49.902;10.074;2022-11-02T07:09:47;13.00;72.40
29431;DHT22;16404;49.902;10.074;2022-11-02T07:12:32;13.10;72.30
29431;DHT22;16404;49.902;10.074;2022-11-02T07:15:16;13.30;72.10
29431;DHT22;16404;49.902;10.074;2022-11-02T07:18:01;13.40;71.70
29431;DHT22;16404;49.902;10.074;2022-11-02T07:20:46;13.50;71.90
29431;DHT22;16404;49.902;10.074;2022-11-02T07:23:30;13.60;72.20
29431;DHT22;16404;49.902;10.074;2022-11-02T07:26:15;13.60;72.20
29431;DHT22;16404;49.902;10.074;2022-11-02T07:28:59;13.70;72.20
29431;DHT22;16404;49.902;10.074;2022-11-02T07:31:44;13.70;72.20
29431;DHT22;16404;49.902;10.074;2022-11-02T07:34:29;13.80;72.00
29431;DHT22;16404;49.902;10.074;2022-11-02T07:37:13;13.90;72.00
29431;DHT22;16404;49.902;10.074;2022-11-02T07:39:58;13.90;71.90
29431;DHT22;16404;49.902;10.074;2022-11-02T07:42:43;14.00;72.10
29431;DHT22;16404;49.902;10.074;2022-11-02T07:45:29;14.00;72.10
29431;DHT22;16404;49.902;10.074;2022-11-02T07:48:13;14.10;71.90
29431;DHT22;16404;49.902;10.074;2022-11-02T07:50:58;14.20;71.90
29431;DHT22;16404;49.902;10.074;2022-11-02T07:53:42;14.30;71.70
29431;DHT22;16404;49.902;10.074;2022-11-02T07:56:27;14.40;71.50
29431;DHT22;16404;49.902;10.074;2022-11-02T07:59:18;14.50;71.40
29431;DHT22;16404;49.902;10.074;2022-11-02T08:02:05;14.50;71.30
29431;DHT22;16404;49.902;10.074;2022-11-02T08:04:50;14.60;71.10
29431;DHT22;16404;49.902;10.074;2022-11-02T08:07:34;14.70;71.10
29431;DHT22;16404;49.902;10.074;2022-11-02T08:10:19;14.80;71.00
29431;DHT22;16404;49.902;10.074;2022-11-02T08:13:03;14.90;70.90
29431;DHT22;16404;49.902;10.074;2022-11-02T08:15:52;15.00;70.60
29431;DHT22;16404;49.902;10.074;2022-11-02T08:18:37;15.00;70.80
29431;DHT22;16404;49.902;10.074;2022-11-02T08:21:21;15.10;71.00
29431;DHT22;16404;49.902;10.074;2022-11-02T08:24:06;15.10;70.80
29431;DHT22;16404;49.902;10.074;2022-11-02T08:26:51;15.20;70.70
29431;DHT22;16404;49.902;10.074;2022-11-02T08:29:35;15.40;70.60
29431;DHT22;16404;49.902;10.074;2022-11-02T08:32:20;15.50;70.30
29431;DHT22;16404;49.902;10.074;2022-11-02T08:35:05;15.60;70.00
29431;DHT22;16404;49.902;10.074;2022-11-02T08:37:53;15.70;69.50
29431;DHT22;16404;49.902;10.074;2022-11-02T08:40:38;15.90;69.30
29431;DHT22;16404;49.902;10.074;2022-11-02T08:43:22;15.90;68.70
29431;DHT22;16404;49.902;10.074;2022-11-02T08:46:07;15.90;68.60
29431;DHT22;16404;49.902;10.074;2022-11-02T08:48:52;15.90;68.50
29431;DHT22;16404;49.902;10.074;2022-11-02T08:51:37;15.90;68.60
29431;DHT22;16404;49.902;10.074;2022-11-02T08:54:21;15.90;68.70
29431;DHT22;16404;49.902;10.074;2022-11-02T08:57:06;15.90;68.90
29431;DHT22;16404;49.902;10.074;2022-11-02T08:59:51;15.90;69.20
29431;DHT22;16404;49.902;10.074;2022-11-02T09:02:35;15.90;69.10
29431;DHT22;16404;49.902;10.074;2022-11-02T09:05:20;15.90;69.20
29431;DHT22;16404;49.902;10.074;2022-11-02T09:08:07;16.00;69.40
29431;DHT22;16404;49.902;10.074;2022-11-02T09:10:57;15.90;69.60
29431;DHT22;16404;49.902;10.074;2022-11-02T09:13:42;15.80;69.50
29431;DHT22;16404;49.902;10.074;2022-11-02T09:16:26;15.70;69.50
29431;DHT22;16404;49.902;10.074;2022-11-02T09:19:11;15.80;69.60
29431;DHT22;16404;49.902;10.074;2022-11-02T09:21:55;15.80;69.90
29431;DHT22;16404;49.902;10.074;2022-11-02T09:24:40;15.80;69.80
29431;DHT22;16404;49.902;10.074;2022-11-02T09:27:25;15.80;70.10
29431;DHT22;16404;49.902;10.074;2022-11-02T09:30:11;15.90;70.00
29431;DHT22;16404;49.902;10.074;2022-11-02T09:33:00;15.80;69.80
29431;DHT22;16404;49.902;10.074;2022-11-02T09:35:46;15.90;69.60
29431;DHT22;16404;49.902;10.074;2022-11-02T09:38:31;15.90;68.90
29431;DHT22;16404;49.902;10.074;2022-11-02T09:41:32;16.00;68.90
29431;DHT22;16404;49.902;10.074;2022-11-02T09:44:25;16.00;68.50
29431;DHT22;16404;49.902;10.074;2022-11-02T09:47:12;16.10;68.30
29431;DHT22;16404;49.902;10.074;2022-11-02T09:49:59;16.20;67.90
29431;DHT22;16404;49.902;10.074;2022-11-02T09:52:48;16.10;67.60
29431;DHT22;16404;49.902;10.074;2022-11-02T09:55:38;16.20;66.80
29431;DHT22;16404;49.902;10.074;2022-11-02T09:58:31;16.20;66.10
29431;DHT22;16404;49.902;10.074;2022-11-02T10:04:50;16.00;66.30
29431;DHT22;16404;49.902;10.074;2022-11-02T10:08:44;15.90;65.70
29431;DHT22;16404;49.902;10.074;2022-11-02T10:13:57;15.80;66.00
29431;DHT22;16404;49.902;10.074;2022-11-02T10:19:40;15.70;65.90
29431;DHT22;16404;49.902;10.074;2022-11-02T10:22:32;15.70;65.60
29431;DHT22;16404;49.902;10.074;2022-11-02T10:25:17;15.80;65.60
29431;DHT22;16404;49.902;10.074;2022-11-02T10:28:08;15.70;65.50
29431;DHT22;16404;49.902;10.074;2022-11-02T10:30:53;15.60;64.90
29431;DHT22;16404;49.902;10.074;2022-11-02T10:33:38;15.50;65.10
29431;DHT22;16404;49.902;10.074;2022-11-02T10:36:45;15.50;64.90
29431;DHT22;16404;49.902;10.074;2022-11-02T10:51:21;15.60;62.10
29431;DHT22;16404;49.902;10.074;2022-11-02T10:54:12;15.60;62.30
29431;DHT22;16404;49.902;10.074;2022-11-02T10:56:58;15.60;62.20
29431;DHT22;16404;49.902;10.074;2022-11-02T10:59:43;15.60;62.50
29431;DHT22;16404;49.902;10.074;2022-11-02T11:02:27;15.70;62.90
29431;DHT22;16404;49.902;10.074;2022-11-02T11:05:13;15.70;62.30
29431;DHT22;16404;49.902;10.074;2022-11-02T11:07:58;15.80;62.30
29431;DHT22;16404;49.902;10.074;2022-11-02T11:10:42;15.80;62.50
29431;DHT22;16404;49.902;10.074;2022-11-02T11:13:27;15.90;62.70
29431;DHT22;16404;49.902;10.074;2022-11-02T11:16:12;16.00;62.00
29431;DHT22;16404;49.902;10.074;2022-11-02T11:18:56;16.00;61.30
29431;DHT22;16404;49.902;10.074;2022-11-02T11:21:42;16.00;61.20
29431;DHT22;16404;49.902;10.074;2022-11-02T11:24:27;16.10;61.40
29431;DHT22;16404;49.902;10.074;2022-11-02T11:29:58;16.40;60.80
29431;DHT22;16404;49.902;10.074;2022-11-02T11:32:46;16.50;60.20
29431;DHT22;16404;49.902;10.074;2022-11-02T11:35:34;16.50;59.80
29431;DHT22;16404;49.902;10.074;2022-11-02T11:38:23;16.50;58.90
29431;DHT22;16404;49.902;10.074;2022-11-02T11:41:10;16.50;59.00
29431;DHT22;16404;49.902;10.074;2022-11-02T11:43:55;16.50;58.90
29431;DHT22;16404;49.902;10.074;2022-11-02T11:46:41;16.60;58.90
29431;DHT22;16404;49.902;10.074;2022-11-02T11:49:31;16.70;58.80
29431;DHT22;16404;49.902;10.074;2022-11-02T11:52:25;16.70;58.60
29431;DHT22;16404;49.902;10.074;2022-11-02T11:55:22;16.80;57.90
29431;DHT22;16404;49.902;10.074;2022-11-02T11:58:23;16.80;57.80
29431;DHT22;16404;49.902;10.074;2022-11-02T12:03:58;16.90;57.60
29431;DHT22;16404;49.902;10.074;2022-11-02T12:10:06;16.80;57.00
29431;DHT22;16404;49.902;10.074;2022-11-02T12:13:15;16.80;57.50
29431;DHT22;16404;49.902;10.074;2022-11-02T12:19:38;16.80;57.20
29431;DHT22;16404;49.902;10.074;2022-11-02T12:26:39;16.60;56.40
29431;DHT22;16404;49.902;10.074;2022-11-02T12:38:37;16.70;56.80
29431;DHT22;16404;49.902;10.074;2022-11-02T12:56:21;16.90;55.80
29431;DHT22;16404;49.902;10.074;2022-11-02T12:59:15;16.90;55.20
29431;DHT22;16404;49.902;10.074;2022-11-02T13:02:27;17.10;55.20
29431;DHT22;16404;49.902;10.074;2022-11-02T13:05:19;17.20;55.60
29431;DHT22;16404;49.902;10.074;2022-11-02T13:08:30;17.20;55.30
29431;DHT22;16404;49.902;10.074;2022-11-02T13:11:22;17.20;55.40
29431;DHT22;16404;49.902;10.074;2022-11-02T13:14:17;17.20;55.40
29431;DHT22;16404;49.902;10.074;2022-11-02T13:17:08;17.20;55.30
29431;DHT22;16404;49.902;10.074;2022-11-02T13:19:57;17.30;55.50
29431;DHT22;16404;49.902;10.074;2022-11-02T13:22:49;17.40;54.90
29431;DHT22;16404;49.902;10.074;2022-11-02T13:25:38;17.40;54.90
29431;DHT22;16404;49.902;10.074;2022-11-02T13:28:42;17.40;55.00
29431;DHT22;16404;49.902;10.074;2022-11-02T13:31:33;17.30;55.10
29431;DHT22;16404;49.902;10.074;2022-11-02T13:34:32;17.40;54.70
29431;DHT22;16404;49.902;10.074;2022-11-02T13:37:32;17.40;54.80
29431;DHT22;16404;49.902;10.074;2022-11-02T13:40:32;17.40;54.70
29431;DHT22;16404;49.902;10.074;2022-11-02T13:43:35;17.40;54.90
29431;DHT22;16404;49.902;10.074;2022-11-02T13:49:35;17.40;54.30
29431;DHT22;16404;49.902;10.074;2022-11-02T13:52:42;17.50;54.10
29431;DHT22;16404;49.902;10.074;2022-11-02T13:55:45;17.40;54.10
29431;DHT22;16404;49.902;10.074;2022-11-02T13:59:05;17.40;54.80
29431;DHT22;16404;49.902;10.074;2022-11-02T14:01:56;17.40;54.80
29431;DHT22;16404;49.902;10.074;2022-11-02T14:04:48;17.50;54.70
29431;DHT22;16404;49.902;10.074;2022-11-02T14:07:34;17.40;55.00
29431;DHT22;16404;49.902;10.074;2022-11-02T14:10:23;17.50;55.30
29431;DHT22;16404;49.902;10.074;2022-11-02T14:16:57;17.40;55.00
29431;DHT22;16404;49.902;10.074;2022-11-02T14:20:30;17.40;54.80
29431;DHT22;16404;49.902;10.074;2022-11-02T14:26:31;17.40;53.40
29431;DHT22;16404;49.902;10.074;2022-11-02T14:32:50;17.10;53.40
29431;DHT22;16404;49.902;10.074;2022-11-02T14:35:39;16.90;54.10
29431;DHT22;16404;49.902;10.074;2022-11-02T14:42:23;16.90;54.00
29431;DHT22;16404;49.902;10.074;2022-11-02T14:45:29;16.80;53.70
29431;DHT22;16404;49.902;10.074;2022-11-02T14:48:18;16.90;54.30
29431;DHT22;16404;49.902;10.074;2022-11-02T14:51:05;17.00;54.20
29431;DHT22;16404;49.902;10.074;2022-11-02T14:54:15;17.00;54.10
29431;DHT22;16404;49.902;10.074;2022-11-02T14:59:49;17.00;54.60
29431;DHT22;16404;49.902;10.074;2022-11-02T15:02:37;17.00;54.60
29431;DHT22;16404;49.902;10.074;2022-11-02T15:08:24;16.80;55.00
29431;DHT22;16404;49.902;10.074;2022-11-02T15:23:23;16.80;55.30
29431;DHT22;16404;49.902;10.074;2022-11-02T15:26:13;16.70;55.20
29431;DHT22;16404;49.902;10.074;2022-11-02T15:29:01;16.70;55.30
29431;DHT22;16404;49.902;10.074;2022-11-02T15:31:54;16.70;55.30
29431;DHT22;16404;49.902;10.074;2022-11-02T15:34:44;16.80;55.40
29431;DHT22;16404;49.902;10.074;2022-11-02T15:37:30;16.80;55.30
29431;DHT22;16404;49.902;10.074;2022-11-02T15:40:21;16.80;55.30
29431;DHT22;16404;49.902;10.074;2022-11-02T15:59:18;16.70;55.30
29431;DHT22;16404;49.902;10.074;2022-11-02T16:04:55;16.40;55.30
29431;DHT22;16404;49.902;10.074;2022-11-02T16:07:41;16.30;55.50
29431;DHT22;16404;49.902;10.074;2022-11-02T16:13:18;16.10;55.80
29431;DHT22;16404;49.902;10.074;2022-11-02T16:16:07;16.00;55.80
29431;DHT22;16404;49.902;10.074;2022-11-02T16:18:55;15.90;56.20
29431;DHT22;16404;49.902;10.074;2022-11-02T16:21:41;15.80;56.40
29431;DHT22;16404;49.902;10.074;2022-11-02T16:24:26;15.70;56.30
29431;DHT22;16404;49.902;10.074;2022-11-02T16:27:11;15.70;56.30
29431;DHT22;16404;49.902;10.074;2022-11-02T16:29:56;15.60;56.40
29431;DHT22;16404;49.902;10.074;2022-11-02T16:32:41;15.50;56.60
29431;DHT22;16404;49.902;10.074;2022-11-02T16:35:26;15.40;56.80
29431;DHT22;16404;49.902;10.074;2022-11-02T16:38:10;15.30;56.90
29431;DHT22;16404;49.902;10.074;2022-11-02T16:40:55;15.20;57.00
29431;DHT22;16404;49.902;10.074;2022-11-02T16:43:42;15.20;57.00
29431;DHT22;16404;49.902;10.074;2022-11-02T16:46:39;15.10;57.20
29431;DHT22;16404;49.902;10.074;2022-11-02T16:49:26;15.00;57.10
29431;DHT22;16404;49.902;10.074;2022-11-02T16:52:31;15.00;57.00
29431;DHT22;16404;49.902;10.074;2022-11-02T17:10:38;11.80;57.60
29431;DHT22;16404;49.902;10.074;2022-11-02T17:13:23;11.60;61.20
29431;DHT22;16404;49.902;10.074;2022-11-02T17:16:10;11.90;62.40
29431;DHT22;16404;49.902;10.074;2022-11-02T17:18:55;12.30;62.10
29431;DHT22;16404;49.902;10.074;2022-11-02T17:21:42;12.60;61.60
29431;DHT22;16404;49.902;10.074;2022-11-02T17:24:33;12.90;61.50
29431;DHT22;16404;49.902;10.074;2022-11-02T17:27:25;13.10;61.10
29431;DHT22;16404;49.902;10.074;2022-11-02T17:36:07;13.40;60.40
29431;DHT22;16404;49.902;10.074;2022-11-02T17:38:52;13.30;60.20
29431;DHT22;16404;49.902;10.074;2022-11-02T17:41:55;13.30;60.40
29431;DHT22;16404;49.902;10.074;2022-11-02T17:45:22;13.40;60.30
29431;DHT22;16404;49.902;10.074;2022-11-02T17:48:08;13.40;60.60
29431;DHT22;16404;49.902;10.074;2022-11-02T17:50:55;13.50;60.40
29431;DHT22;16404;49.902;10.074;2022-11-02T17:53:41;13.40;60.40
29431;DHT22;16404;49.902;10.074;2022-11-02T17:56:25;13.30;60.00
29431;DHT22;16404;49.902;10.074;2022-11-02T17:59:11;13.30;59.80
29431;DHT22;16404;49.902;10.074;2022-11-02T18:01:56;13.40;59.70
29431;DHT22;16404;49.902;10.074;2022-11-02T18:04:41;13.30;59.30
29431;DHT22;16404;49.902;10.074;2022-11-02T18:07:26;13.20;59.70
29431;DHT22;16404;49.902;10.074;2022-11-02T18:10:10;13.10;60.00
29431;DHT22;16404;49.902;10.074;2022-11-02T18:12:55;13.10;60.10
29431;DHT22;16404;49.902;10.074;2022-11-02T18:15:40;13.00;60.30
29431;DHT22;16404;49.902;10.074;2022-11-02T18:18:25;12.90;60.10
29431;DHT22;16404;49.902;10.074;2022-11-02T18:21:10;13.00;60.20
29431;DHT22;16404;49.902;10.074;2022-11-02T18:23:55;12.90;60.10
29431;DHT22;16404;49.902;10.074;2022-11-02T18:26:40;12.90;60.00
29431;DHT22;16404;49.902;10.074;2022-11-02T18:29:24;12.90;59.70
29431;DHT22;16404;49.902;10.074;2022-11-02T18:32:09;12.80;59.30
29431;DHT22;16404;49.902;10.074;2022-11-02T18:34:53;12.80;59.30
29431;DHT22;16404;49.902;10.074;2022-11-02T18:37:39;12.70;59.30
29431;DHT22;16404;49.902;10.074;2022-11-02T18:40:24;12.60;59.20
29431;DHT22;16404;49.902;10.074;2022-11-02T18:43:08;12.50;59.20
29431;DHT22;16404;49.902;10.074;2022-11-02T18:45:53;12.40;59.20
29431;DHT22;16404;49.902;10.074;2022-11-02T18:48:37;12.30;59.30
29431;DHT22;16404;49.902;10.074;2022-11-02T18:51:22;12.20;59.50
29431;DHT22;16404;49.902;10.074;2022-11-02T18:54:07;12.20;59.50
29431;DHT22;16404;49.902;10.074;2022-11-02T18:56:52;12.20;59.60
29431;DHT22;16404;49.902;10.074;2022-11-02T18:59:37;12.10;59.70
29431;DHT22;16404;49.902;10.074;2022-11-02T19:02:21;12.00;60.10
29431;DHT22;16404;49.902;10.074;2022-11-02T19:05:06;11.90;60.60
29431;DHT22;16404;49.902;10.074;2022-11-02T19:08:11;12.00;60.80
29431;DHT22;16404;49.902;10.074;2022-11-02T19:11:14;12.00;60.80
29431;DHT22;16404;49.902;10.074;2022-11-02T19:13:58;11.90;60.80
29431;DHT22;16404;49.902;10.074;2022-11-02T19:16:43;11.90;60.80
29431;DHT22;16404;49.902;10.074;2022-11-02T19:19:28;11.90;60.70
29431;DHT22;16404;49.902;10.074;2022-11-02T19:22:14;11.90;61.00
29431;DHT22;16404;49.902;10.074;2022-11-02T19:24:59;11.80;61.20
29431;DHT22;16404;49.902;10.074;2022-11-02T19:27:45;11.80;61.10
29431;DHT22;16404;49.902;10.074;2022-11-02T19:30:29;11.80;60.90
29431;DHT22;16404;49.902;10.074;2022-11-02T19:33:14;11.80;60.60
29431;DHT22;16404;49.902;10.074;2022-11-02T19:35:59;11.70;60.20
29431;DHT22;16404;49.902;10.074;2022-11-02T19:38:43;11.70;60.10
29431;DHT22;16404;49.902;10.074;2022-11-02T19:41:29;11.70;60.20
29431;DHT22;16404;49.902;10.074;2022-11-02T19:44:13;11.50;60.60
29431;DHT22;16404;49.902;10.074;2022-11-02T19:46:58;11.40;60.70
29431;DHT22;16404;49.902;10.074;2022-11-02T19:49:42;11.40;60.70
29431;DHT22;16404;49.902;10.074;2022-11-02T19:52:27;11.40;60.50
29431;DHT22;16404;49.902;10.074;2022-11-02T19:55:12;11.40;60.40
29431;DHT22;16404;49.902;10.074;2022-11-02T19:57:56;11.30;61.30
29431;DHT22;16404;49.902;10.074;2022-11-02T20:00:41;11.20;60.70
29431;DHT22;16404;49.902;10.074;2022-11-02T20:03:25;11.20;61.10
29431;DHT22;16404;49.902;10.074;2022-11-02T20:06:18;11.20;60.30
29431;DHT22;16404;49.902;10.074;2022-11-02T20:09:05;11.10;60.50
29431;DHT22;16404;49.902;10.074;2022-11-02T20:11:50;11.00;60.40